sensor_id;sensor_type;location;lat;lon;timestamp;pressure;altitude;pressure_sealevel;temperature;humidity
54808;BME280;40708;50.364;7.550;2023-07-31T00:00:55;100282.03;;;19.33;100.00
54808;BME280;40708;50.364;7.550;2023-07-31T00:03:21;100285.66;;;19.32;100.00
54808;BME280;40708;50.364;7.550;2023-07-31T00:05:46;100297.56;;;19.27;100.00
54808;BME280;40708;50.364;7.550;2023-07-31T00:08:11;100281.34;;;19.28;100.00
54808;BME280;40708;50.364;7.550;2023-07-31T00:10:37;100283.34;;;19.23;100.00
54808;BME280;40708;50.364;7.550;2023-07-31T00:13:02;100277.06;;;19.23;100.00
54808;BME280;40708;50.364;7.550;2023-07-31T00:15:27;100267.41;;;19.17;100.00
54808;BME280;40708;50.364;7.550;2023-07-31T00:17:52;100263.22;;;19.10;100.00
54808;BME280;40708;50.364;7.550;2023-07-31T00:20:18;100270.41;;;19.10;100.00
54808;BME280;40708;50.364;7.550;2023-07-31T00:22:43;100271.53;;;19.02;100.00
54808;BME280;40708;50.364;7.550;2023-07-31T00:25:08;100259.94;;;19.02;100.00
54808;BME280;40708;50.364;7.550;2023-07-31T00:27:34;100257.25;;;19.02;100.00
54808;BME280;40708;50.364;7.550;2023-07-31T00:29:59;100256.41;;;19.00;100.00
54808;BME280;40708;50.364;7.550;2023-07-31T00:32:24;100272.59;;;18.98;100.00
54808;BME280;40708;50.364;7.550;2023-07-31T00:34:49;100274.72;;;18.89;100.00
54808;BME280;40708;50.364;7.550;2023-07-31T00:37:15;100285.38;;;18.92;100.00
54808;BME280;40708;50.364;7.550;2023-07-31T00:39:40;100286.34;;;18.91;100.00
54808;BME280;40708;50.364;7.550;2023-07-31T00:42:06;100289.94;;;18.90;100.00
54808;BME280;40708;50.364;7.550;2023-07-31T00:44:31;100299.81;;;18.89;100.00
54808;BME280;40708;50.364;7.550;2023-07-31T00:46:57;100277.41;;;18.89;100.00
54808;BME280;40708;50.364;7.550;2023-07-31T00:49:24;100281.88;;;18.90;100.00
54808;BME280;40708;50.364;7.550;2023-07-31T00:51:49;100281.88;;;18.90;100.00
54808;BME280;40708;50.364;7.550;2023-07-31T00:54:15;100284.63;;;18.88;100.00
54808;BME280;40708;50.364;7.550;2023-07-31T00:56:40;100289.06;;;18.89;100.00
54808;BME280;40708;50.364;7.550;2023-07-31T00:59:06;100290.88;;;18.89;100.00
54808;BME280;40708;50.364;7.550;2023-07-31T01:01:31;100295.38;;;18.88;100.00
54808;BME280;40708;50.364;7.550;2023-07-31T01:03:57;100300.66;;;18.91;100.00
54808;BME280;40708;50.364;7.550;2023-07-31T01:06:46;100291.63;;;18.92;100.00
54808;BME280;40708;50.364;7.550;2023-07-31T01:11:57;100290.88;;;18.89;100.00
54808;BME280;40708;50.364;7.550;2023-07-31T01:14:25;100289.16;;;18.86;100.00
54808;BME280;40708;50.364;7.550;2023-07-31T01:16:50;100291.97;;;18.83;100.00
54808;BME280;40708;50.364;7.550;2023-07-31T01:19:18;100301.00;;;18.81;100.00
54808;BME280;40708;50.364;7.550;2023-07-31T01:24:19;100303.66;;;18.82;100.00
54808;BME280;40708;50.364;7.550;2023-07-31T01:26:53;100304.69;;;18.78;100.00
54808;BME280;40708;50.364;7.550;2023-07-31T01:29:32;100314.53;;;18.79;100.00
54808;BME280;40708;50.364;7.550;2023-07-31T01:32:02;100316.38;;;18.77;100.00
54808;BME280;40708;50.364;7.550;2023-07-31T01:34:29;100321.88;;;18.74;100.00
54808;BME280;40708;50.364;7.550;2023-07-31T01:36:56;100327.25;;;18.74;100.00
54808;BME280;40708;50.364;7.550;2023-07-31T01:39:22;100331.66;;;18.75;100.00
54808;BME280;40708;50.364;7.550;2023-07-31T01:41:47;100337.03;;;18.75;100.00
54808;BME280;40708;50.364;7.550;2023-07-31T01:44:13;100336.13;;;18.76;100.00
54808;BME280;40708;50.364;7.550;2023-07-31T01:46:38;100330.84;;;18.73;100.00
54808;BME280;40708;50.364;7.550;2023-07-31T01:49:03;100325.56;;;18.70;100.00
54808;BME280;40708;50.364;7.550;2023-07-31T01:51:30;100329.34;;;18.65;100.00
54808;BME280;40708;50.364;7.550;2023-07-31T01:53:59;100327.53;;;18.65;100.00
54808;BME280;40708;50.364;7.550;2023-07-31T01:56:24;100339.47;;;18.57;100.00
54808;BME280;40708;50.364;7.550;2023-07-31T01:58:49;100345.75;;;18.57;100.00
54808;BME280;40708;50.364;7.550;2023-07-31T02:01:15;100354.78;;;18.55;100.00
54808;BME280;40708;50.364;7.550;2023-07-31T02:03:40;100370.13;;;18.51;100.00
54808;BME280;40708;50.364;7.550;2023-07-31T02:06:07;100369.38;;;18.48;100.00
54808;BME280;40708;50.364;7.550;2023-07-31T02:08:32;100369.38;;;18.46;100.00
54808;BME280;40708;50.364;7.550;2023-07-31T02:10:57;100361.38;;;18.44;100.00
54808;BME280;40708;50.364;7.550;2023-07-31T02:13:23;100370.50;;;18.39;100.00
54808;BME280;40708;50.364;7.550;2023-07-31T02:15:48;100370.53;;;18.37;100.00
54808;BME280;40708;50.364;7.550;2023-07-31T02:18:13;100373.38;;;18.33;100.00
54808;BME280;40708;50.364;7.550;2023-07-31T02:20:39;100371.63;;;18.32;100.00
54808;BME280;40708;50.364;7.550;2023-07-31T02:23:04;100383.41;;;18.28;100.00
54808;BME280;40708;50.364;7.550;2023-07-31T02:25:29;100387.94;;;18.26;100.00
54808;BME280;40708;50.364;7.550;2023-07-31T02:27:55;100403.34;;;18.19;100.00
54808;BME280;40708;50.364;7.550;2023-07-31T02:30:20;100412.44;;;18.15;100.00
54808;BME280;40708;50.364;7.550;2023-07-31T02:32:45;100426.81;;;18.13;100.00
54808;BME280;40708;50.364;7.550;2023-07-31T02:35:11;100439.41;;;18.11;100.00
54808;BME280;40708;50.364;7.550;2023-07-31T02:37:40;100448.38;;;18.11;100.00
54808;BME280;40708;50.364;7.550;2023-07-31T02:40:06;100455.63;;;18.08;100.00
54808;BME280;40708;50.364;7.550;2023-07-31T02:42:31;100460.13;;;18.07;100.00
54808;BME280;40708;50.364;7.550;2023-07-31T02:44:56;100474.47;;;18.06;100.00
54808;BME280;40708;50.364;7.550;2023-07-31T02:47:22;100477.06;;;18.09;100.00
54808;BME280;40708;50.364;7.550;2023-07-31T02:49:47;100478.94;;;18.07;100.00
54808;BME280;40708;50.364;7.550;2023-07-31T02:52:13;100487.00;;;18.06;100.00
54808;BME280;40708;50.364;7.550;2023-07-31T02:54:38;100490.53;;;18.08;100.00
54808;BME280;40708;50.364;7.550;2023-07-31T02:57:04;100501.22;;;18.09;100.00
54808;BME280;40708;50.364;7.550;2023-07-31T02:59:29;100504.81;;;18.10;100.00
54808;BME280;40708;50.364;7.550;2023-07-31T03:01:55;100507.50;;;18.10;100.00
54808;BME280;40708;50.364;7.550;2023-07-31T03:04:20;100517.25;;;18.12;100.00
54808;BME280;40708;50.364;7.550;2023-07-31T03:06:45;100516.13;;;18.19;100.00
54808;BME280;40708;50.364;7.550;2023-07-31T03:09:11;100528.66;;;18.20;100.00
54808;BME280;40708;50.364;7.550;2023-07-31T03:11:36;100543.91;;;18.18;100.00
54808;BME280;40708;50.364;7.550;2023-07-31T03:14:01;100555.53;;;18.19;100.00
54808;BME280;40708;50.364;7.550;2023-07-31T03:16:27;100563.59;;;18.19;100.00
54808;BME280;40708;50.364;7.550;2023-07-31T03:18:52;100570.81;;;18.17;100.00
54808;BME280;40708;50.364;7.550;2023-07-31T03:21:17;100573.59;;;18.14;100.00
54808;BME280;40708;50.364;7.550;2023-07-31T03:23:42;100583.44;;;18.13;100.00
54808;BME280;40708;50.364;7.550;2023-07-31T03:26:08;100596.03;;;18.11;100.00
54808;BME280;40708;50.364;7.550;2023-07-31T03:28:34;100599.53;;;18.15;100.00
54808;BME280;40708;50.364;7.550;2023-07-31T03:30:59;100593.09;;;18.20;100.00
54808;BME280;40708;50.364;7.550;2023-07-31T03:33:25;100587.84;;;18.16;100.00
54808;BME280;40708;50.364;7.550;2023-07-31T03:35:51;100610.19;;;18.18;100.00
54808;BME280;40708;50.364;7.550;2023-07-31T03:38:16;100595.72;;;18.22;100.00
54808;BME280;40708;50.364;7.550;2023-07-31T03:40:41;100605.78;;;18.15;100.00
54808;BME280;40708;50.364;7.550;2023-07-31T03:43:06;100615.50;;;18.19;100.00
54808;BME280;40708;50.364;7.550;2023-07-31T03:45:32;100610.22;;;18.16;100.00
54808;BME280;40708;50.364;7.550;2023-07-31T03:47:57;100612.06;;;18.14;100.00
54808;BME280;40708;50.364;7.550;2023-07-31T03:50:22;100609.47;;;18.11;100.00
54808;BME280;40708;50.364;7.550;2023-07-31T03:52:48;100626.47;;;18.12;100.00
54808;BME280;40708;50.364;7.550;2023-07-31T03:55:13;100624.69;;;18.11;100.00
54808;BME280;40708;50.364;7.550;2023-07-31T03:57:38;100635.47;;;18.09;100.00
54808;BME280;40708;50.364;7.550;2023-07-31T04:00:04;100622.06;;;18.09;100.00
54808;BME280;40708;50.364;7.550;2023-07-31T04:02:30;100618.56;;;18.06;100.00
54808;BME280;40708;50.364;7.550;2023-07-31T04:04:55;100622.97;;;18.08;100.00
54808;BME280;40708;50.364;7.550;2023-07-31T04:07:20;100612.19;;;18.10;100.00
54808;BME280;40708;50.364;7.550;2023-07-31T04:09:45;100628.41;;;18.07;100.00
54808;BME280;40708;50.364;7.550;2023-07-31T04:12:11;100641.81;;;18.07;100.00
54808;BME280;40708;50.364;7.550;2023-07-31T04:14:36;100625.50;;;18.13;100.00
54808;BME280;40708;50.364;7.550;2023-07-31T04:17:02;100619.31;;;18.11;100.00
54808;BME280;40708;50.364;7.550;2023-07-31T04:19:27;100630.06;;;18.11;100.00
54808;BME280;40708;50.364;7.550;2023-07-31T04:21:52;100633.63;;;18.11;100.00
54808;BME280;40708;50.364;7.550;2023-07-31T04:24:17;100642.56;;;18.12;100.00
54808;BME280;40708;50.364;7.550;2023-07-31T04:26:49;100648.84;;;18.11;100.00
54808;BME280;40708;50.364;7.550;2023-07-31T04:29:14;100659.56;;;18.12;100.00
54808;BME280;40708;50.364;7.550;2023-07-31T04:31:41;100673.00;;;18.11;100.00
54808;BME280;40708;50.364;7.550;2023-07-31T04:34:06;100666.59;;;18.18;100.00
54808;BME280;40708;50.364;7.550;2023-07-31T04:36:33;100655.72;;;18.21;100.00
54808;BME280;40708;50.364;7.550;2023-07-31T04:38:58;100661.97;;;18.23;100.00
54808;BME280;40708;50.364;7.550;2023-07-31T04:41:23;100656.81;;;18.15;100.00
54808;BME280;40708;50.364;7.550;2023-07-31T04:43:50;100662.13;;;18.17;100.00
54808;BME280;40708;50.364;7.550;2023-07-31T04:46:16;100657.50;;;18.22;100.00
54808;BME280;40708;50.364;7.550;2023-07-31T04:48:42;100667.34;;;18.21;100.00
54808;BME280;40708;50.364;7.550;2023-07-31T04:51:07;100670.94;;;18.22;100.00
54808;BME280;40708;50.364;7.550;2023-07-31T04:53:32;100661.00;;;18.25;100.00
54808;BME280;40708;50.364;7.550;2023-07-31T04:55:58;100658.16;;;18.30;100.00
54808;BME280;40708;50.364;7.550;2023-07-31T04:58:23;100643.81;;;18.31;100.00
54808;BME280;40708;50.364;7.550;2023-07-31T05:00:48;100650.94;;;18.32;100.00
54808;BME280;40708;50.364;7.550;2023-07-31T05:03:14;100648.09;;;18.38;100.00
54808;BME280;40708;50.364;7.550;2023-07-31T05:05:39;100643.75;;;18.34;100.00
54808;BME280;40708;50.364;7.550;2023-07-31T05:08:04;100649.06;;;18.35;100.00
54808;BME280;40708;50.364;7.550;2023-07-31T05:10:29;100640.84;;;18.40;100.00
54808;BME280;40708;50.364;7.550;2023-07-31T05:12:55;100639.13;;;18.39;100.00
54808;BME280;40708;50.364;7.550;2023-07-31T05:15:20;100636.44;;;18.39;100.00
54808;BME280;40708;50.364;7.550;2023-07-31T05:17:45;100634.50;;;18.44;100.00
54808;BME280;40708;50.364;7.550;2023-07-31T05:20:11;100611.16;;;18.48;100.00
54808;BME280;40708;50.364;7.550;2023-07-31T05:22:36;100623.66;;;18.47;100.00
54808;BME280;40708;50.364;7.550;2023-07-31T05:25:02;100601.97;;;18.55;100.00
54808;BME280;40708;50.364;7.550;2023-07-31T05:27:27;100574.94;;;18.61;100.00
54808;BME280;40708;50.364;7.550;2023-07-31T05:29:52;100557.59;;;18.71;100.00
54808;BME280;40708;50.364;7.550;2023-07-31T05:32:17;100546.66;;;18.77;100.00
54808;BME280;40708;50.364;7.550;2023-07-31T05:34:43;100534.91;;;18.79;100.00
54808;BME280;40708;50.364;7.550;2023-07-31T05:37:10;100512.38;;;18.83;100.00
54808;BME280;40708;50.364;7.550;2023-07-31T05:39:35;100512.25;;;18.88;100.00
54808;BME280;40708;50.364;7.550;2023-07-31T05:42:00;100497.81;;;18.90;100.00
54808;BME280;40708;50.364;7.550;2023-07-31T05:44:26;100494.34;;;18.87;100.00
54808;BME280;40708;50.364;7.550;2023-07-31T05:46:51;100489.75;;;18.90;100.00
54808;BME280;40708;50.364;7.550;2023-07-31T05:49:16;100483.56;;;18.88;100.00
54808;BME280;40708;50.364;7.550;2023-07-31T05:51:41;100495.28;;;18.86;100.00
54808;BME280;40708;50.364;7.550;2023-07-31T05:54:07;100499.53;;;18.93;100.00
54808;BME280;40708;50.364;7.550;2023-07-31T05:56:32;100497.75;;;18.92;100.00
54808;BME280;40708;50.364;7.550;2023-07-31T05:58:59;100484.41;;;18.89;100.00
54808;BME280;40708;50.364;7.550;2023-07-31T06:01:24;100461.81;;;18.94;100.00
54808;BME280;40708;50.364;7.550;2023-07-31T06:03:49;100449.94;;;19.01;100.00
54808;BME280;40708;50.364;7.550;2023-07-31T06:06:15;100441.44;;;19.14;100.00
54808;BME280;40708;50.364;7.550;2023-07-31T06:08:40;100401.88;;;19.17;100.00
54808;BME280;40708;50.364;7.550;2023-07-31T06:11:06;100384.44;;;19.29;100.00
54808;BME280;40708;50.364;7.550;2023-07-31T06:13:32;100370.63;;;19.39;100.00
54808;BME280;40708;50.364;7.550;2023-07-31T06:15:57;100352.88;;;19.58;100.00
54808;BME280;40708;50.364;7.550;2023-07-31T06:18:24;100334.66;;;19.65;100.00
54808;BME280;40708;50.364;7.550;2023-07-31T06:20:49;100309.63;;;19.63;100.00
54808;BME280;40708;50.364;7.550;2023-07-31T06:23:18;100293.91;;;19.76;100.00
54808;BME280;40708;50.364;7.550;2023-07-31T06:25:44;100273.63;;;19.89;100.00
54808;BME280;40708;50.364;7.550;2023-07-31T06:28:09;100260.09;;;19.90;100.00
54808;BME280;40708;50.364;7.550;2023-07-31T06:30:34;100259.47;;;19.84;100.00
54808;BME280;40708;50.364;7.550;2023-07-31T06:32:59;100269.47;;;19.80;100.00
54808;BME280;40708;50.364;7.550;2023-07-31T06:35:25;100293.50;;;19.85;100.00
54808;BME280;40708;50.364;7.550;2023-07-31T06:37:50;100276.34;;;19.66;100.00
54808;BME280;40708;50.364;7.550;2023-07-31T06:40:16;100263.94;;;19.62;100.00
54808;BME280;40708;50.364;7.550;2023-07-31T06:42:42;100285.13;;;19.47;100.00
54808;BME280;40708;50.364;7.550;2023-07-31T06:45:07;100312.53;;;19.34;100.00
54808;BME280;40708;50.364;7.550;2023-07-31T06:47:33;100336.91;;;19.05;100.00
54808;BME280;40708;50.364;7.550;2023-07-31T06:49:58;100366.00;;;18.93;100.00
54808;BME280;40708;50.364;7.550;2023-07-31T06:52:23;100392.44;;;19.06;100.00
54808;BME280;40708;50.364;7.550;2023-07-31T06:55:08;100399.78;;;19.00;100.00
54808;BME280;40708;50.364;7.550;2023-07-31T06:57:41;100395.03;;;19.09;100.00
54808;BME280;40708;50.364;7.550;2023-07-31T07:00:07;100398.75;;;19.05;100.00
54808;BME280;40708;50.364;7.550;2023-07-31T07:02:33;100374.59;;;19.03;100.00
54808;BME280;40708;50.364;7.550;2023-07-31T07:04:58;100360.72;;;19.15;100.00
54808;BME280;40708;50.364;7.550;2023-07-31T07:07:24;100333.66;;;19.20;100.00
54808;BME280;40708;50.364;7.550;2023-07-31T07:09:49;100320.03;;;19.24;100.00
54808;BME280;40708;50.364;7.550;2023-07-31T07:12:14;100311.50;;;19.38;100.00
54808;BME280;40708;50.364;7.550;2023-07-31T07:14:40;100321.22;;;19.42;100.00
54808;BME280;40708;50.364;7.550;2023-07-31T07:17:05;100298.28;;;19.55;100.00
54808;BME280;40708;50.364;7.550;2023-07-31T07:19:30;100283.44;;;19.45;100.00
54808;BME280;40708;50.364;7.550;2023-07-31T07:21:56;100271.13;;;19.38;100.00
54808;BME280;40708;50.364;7.550;2023-07-31T07:24:21;100252.03;;;19.45;100.00
54808;BME280;40708;50.364;7.550;2023-07-31T07:26:46;100241.03;;;19.73;100.00
54808;BME280;40708;50.364;7.550;2023-07-31T07:29:11;100214.00;;;19.76;100.00
54808;BME280;40708;50.364;7.550;2023-07-31T07:31:37;100194.34;;;19.96;100.00
54808;BME280;40708;50.364;7.550;2023-07-31T07:34:02;100179.34;;;20.10;100.00
54808;BME280;40708;50.364;7.550;2023-07-31T07:36:28;100168.47;;;20.13;100.00
54808;BME280;40708;50.364;7.550;2023-07-31T07:38:53;100153.50;;;20.06;100.00
54808;BME280;40708;50.364;7.550;2023-07-31T07:41:18;100141.41;;;19.95;100.00
54808;BME280;40708;50.364;7.550;2023-07-31T07:43:43;100125.53;;;20.09;100.00
54808;BME280;40708;50.364;7.550;2023-07-31T07:46:09;100122.25;;;20.23;100.00
54808;BME280;40708;50.364;7.550;2023-07-31T07:48:34;100136.50;;;20.46;100.00
54808;BME280;40708;50.364;7.550;2023-07-31T07:50:59;100159.06;;;20.22;100.00
54808;BME280;40708;50.364;7.550;2023-07-31T07:53:25;100174.88;;;20.31;100.00
54808;BME280;40708;50.364;7.550;2023-07-31T07:55:50;100161.69;;;20.25;100.00
54808;BME280;40708;50.364;7.550;2023-07-31T07:58:15;100158.16;;;20.23;100.00
54808;BME280;40708;50.364;7.550;2023-07-31T08:00:40;100155.16;;;20.09;100.00
54808;BME280;40708;50.364;7.550;2023-07-31T08:03:06;100152.38;;;19.90;100.00
54808;BME280;40708;50.364;7.550;2023-07-31T08:05:31;100147.09;;;19.89;100.00
54808;BME280;40708;50.364;7.550;2023-07-31T08:07:59;100160.72;;;19.84;100.00
54808;BME280;40708;50.364;7.550;2023-07-31T08:10:24;100193.91;;;19.63;100.00
54808;BME280;40708;50.364;7.550;2023-07-31T08:12:50;100233.91;;;19.72;100.00
54808;BME280;40708;50.364;7.550;2023-07-31T08:15:15;100267.22;;;19.70;100.00
54808;BME280;40708;50.364;7.550;2023-07-31T08:17:40;100253.81;;;19.68;100.00
54808;BME280;40708;50.364;7.550;2023-07-31T08:20:06;100255.69;;;19.66;100.00
54808;BME280;40708;50.364;7.550;2023-07-31T08:22:32;100269.97;;;19.45;100.00
54808;BME280;40708;50.364;7.550;2023-07-31T08:24:57;100300.41;;;19.22;100.00
54808;BME280;40708;50.364;7.550;2023-07-31T08:27:22;100349.31;;;19.09;100.00
54808;BME280;40708;50.364;7.550;2023-07-31T08:29:47;100378.63;;;18.91;100.00
54808;BME280;40708;50.364;7.550;2023-07-31T08:32:13;100435.31;;;18.84;100.00
54808;BME280;40708;50.364;7.550;2023-07-31T08:34:38;100465.41;;;18.67;100.00
54808;BME280;40708;50.364;7.550;2023-07-31T08:37:03;100520.94;;;18.68;100.00
54808;BME280;40708;50.364;7.550;2023-07-31T08:39:29;100534.19;;;18.74;100.00
54808;BME280;40708;50.364;7.550;2023-07-31T08:41:58;100536.56;;;18.83;100.00
54808;BME280;40708;50.364;7.550;2023-07-31T08:44:24;100562.28;;;18.92;100.00
54808;BME280;40708;50.364;7.550;2023-07-31T08:46:50;100575.19;;;19.09;100.00
54808;BME280;40708;50.364;7.550;2023-07-31T08:49:17;100533.47;;;19.23;100.00
54808;BME280;40708;50.364;7.550;2023-07-31T08:51:46;100537.13;;;19.48;100.00
54808;BME280;40708;50.364;7.550;2023-07-31T08:54:14;100507.53;;;19.48;100.00
54808;BME280;40708;50.364;7.550;2023-07-31T08:56:39;100473.31;;;19.52;100.00
54808;BME280;40708;50.364;7.550;2023-07-31T08:59:05;100449.19;;;19.74;100.00
54808;BME280;40708;50.364;7.550;2023-07-31T09:01:36;100437.28;;;19.81;100.00
54808;BME280;40708;50.364;7.550;2023-07-31T09:04:06;100446.63;;;19.94;100.00
54808;BME280;40708;50.364;7.550;2023-07-31T09:06:33;100381.13;;;19.93;100.00
54808;BME280;40708;50.364;7.550;2023-07-31T09:08:59;100350.09;;;20.06;100.00
54808;BME280;40708;50.364;7.550;2023-07-31T09:11:25;100338.63;;;20.01;100.00
54808;BME280;40708;50.364;7.550;2023-07-31T09:13:51;100311.38;;;20.09;100.00
54808;BME280;40708;50.364;7.550;2023-07-31T09:16:17;100276.00;;;20.18;100.00
54808;BME280;40708;50.364;7.550;2023-07-31T09:19:00;100290.28;;;20.20;100.00
54808;BME280;40708;50.364;7.550;2023-07-31T09:21:27;100244.59;;;20.17;100.00
54808;BME280;40708;50.364;7.550;2023-07-31T09:23:53;100222.31;;;20.13;100.00
54808;BME280;40708;50.364;7.550;2023-07-31T09:26:32;100178.22;;;20.16;100.00
54808;BME280;40708;50.364;7.550;2023-07-31T09:28:59;100166.06;;;20.28;100.00
54808;BME280;40708;50.364;7.550;2023-07-31T09:31:40;100142.63;;;20.30;100.00
54808;BME280;40708;50.364;7.550;2023-07-31T09:34:06;100107.06;;;20.42;100.00
54808;BME280;40708;50.364;7.550;2023-07-31T09:36:31;100087.69;;;20.52;100.00
54808;BME280;40708;50.364;7.550;2023-07-31T09:39:03;100076.22;;;20.67;100.00
54808;BME280;40708;50.364;7.550;2023-07-31T09:41:32;100058.94;;;20.71;100.00
54808;BME280;40708;50.364;7.550;2023-07-31T09:44:01;100020.50;;;20.87;100.00
54808;BME280;40708;50.364;7.550;2023-07-31T09:46:27;100008.06;;;21.01;100.00
54808;BME280;40708;50.364;7.550;2023-07-31T09:48:52;99999.59;;;21.27;100.00
54808;BME280;40708;50.364;7.550;2023-07-31T09:51:26;99983.50;;;21.43;100.00
54808;BME280;40708;50.364;7.550;2023-07-31T09:53:51;99960.22;;;21.75;100.00
54808;BME280;40708;50.364;7.550;2023-07-31T09:56:17;99936.50;;;21.64;100.00
54808;BME280;40708;50.364;7.550;2023-07-31T09:58:45;99924.72;;;21.50;100.00
54808;BME280;40708;50.364;7.550;2023-07-31T10:01:10;99928.88;;;21.55;100.00
54808;BME280;40708;50.364;7.550;2023-07-31T10:03:36;99924.19;;;21.59;100.00
54808;BME280;40708;50.364;7.550;2023-07-31T10:06:03;99917.03;;;21.75;100.00
54808;BME280;40708;50.364;7.550;2023-07-31T10:08:32;99905.34;;;21.74;100.00
54808;BME280;40708;50.364;7.550;2023-07-31T10:11:00;99894.97;;;21.67;100.00
54808;BME280;40708;50.364;7.550;2023-07-31T10:13:28;99885.75;;;21.71;100.00
54808;BME280;40708;50.364;7.550;2023-07-31T10:15:54;99896.94;;;21.98;100.00
54808;BME280;40708;50.364;7.550;2023-07-31T10:18:23;99866.06;;;22.02;100.00
54808;BME280;40708;50.364;7.550;2023-07-31T10:20:49;99865.41;;;22.29;100.00
54808;BME280;40708;50.364;7.550;2023-07-31T10:23:16;99866.13;;;22.33;100.00
54808;BME280;40708;50.364;7.550;2023-07-31T10:25:41;99862.38;;;22.20;100.00
54808;BME280;40708;50.364;7.550;2023-07-31T10:28:08;99877.25;;;21.96;100.00
54808;BME280;40708;50.364;7.550;2023-07-31T10:30:35;99872.00;;;21.92;100.00
54808;BME280;40708;50.364;7.550;2023-07-31T10:33:03;99856.84;;;21.90;100.00
54808;BME280;40708;50.364;7.550;2023-07-31T10:35:30;99860.16;;;21.95;100.00
54808;BME280;40708;50.364;7.550;2023-07-31T10:37:55;99858.84;;;22.18;100.00
54808;BME280;40708;50.364;7.550;2023-07-31T10:40:25;99848.84;;;22.51;100.00
54808;BME280;40708;50.364;7.550;2023-07-31T10:42:53;99841.16;;;22.75;100.00
54808;BME280;40708;50.364;7.550;2023-07-31T10:45:38;99832.81;;;22.64;100.00
54808;BME280;40708;50.364;7.550;2023-07-31T10:48:12;99829.09;;;22.96;100.00
54808;BME280;40708;50.364;7.550;2023-07-31T10:50:46;99822.63;;;22.98;100.00
54808;BME280;40708;50.364;7.550;2023-07-31T10:53:23;99818.31;;;23.10;100.00
54808;BME280;40708;50.364;7.550;2023-07-31T10:55:49;99803.97;;;23.08;100.00
54808;BME280;40708;50.364;7.550;2023-07-31T10:58:18;99810.50;;;23.20;100.00
54808;BME280;40708;50.364;7.550;2023-07-31T11:00:44;99803.72;;;23.13;100.00
54808;BME280;40708;50.364;7.550;2023-07-31T11:03:12;99807.38;;;23.11;100.00
54808;BME280;40708;50.364;7.550;2023-07-31T11:05:51;99804.53;;;23.29;100.00
54808;BME280;40708;50.364;7.550;2023-07-31T11:08:23;99798.72;;;23.21;100.00
54808;BME280;40708;50.364;7.550;2023-07-31T11:13:40;99799.25;;;23.11;100.00
54808;BME280;40708;50.364;7.550;2023-07-31T11:16:07;99797.72;;;23.22;100.00
54808;BME280;40708;50.364;7.550;2023-07-31T11:18:32;99787.66;;;23.39;100.00
54808;BME280;40708;50.364;7.550;2023-07-31T11:20:58;99795.44;;;23.86;100.00
54808;BME280;40708;50.364;7.550;2023-07-31T11:23:23;99798.63;;;24.07;100.00
54808;BME280;40708;50.364;7.550;2023-07-31T11:25:49;99796.25;;;23.88;100.00
54808;BME280;40708;50.364;7.550;2023-07-31T11:28:17;99803.41;;;23.61;100.00
54808;BME280;40708;50.364;7.550;2023-07-31T11:30:43;99797.53;;;23.25;100.00
54808;BME280;40708;50.364;7.550;2023-07-31T11:33:10;99806.06;;;23.33;100.00
54808;BME280;40708;50.364;7.550;2023-07-31T11:35:47;99800.97;;;23.85;100.00
54808;BME280;40708;50.364;7.550;2023-07-31T11:38:39;99785.91;;;23.81;100.00
54808;BME280;40708;50.364;7.550;2023-07-31T11:41:05;99783.00;;;23.69;100.00
54808;BME280;40708;50.364;7.550;2023-07-31T11:43:33;99785.59;;;23.71;100.00
54808;BME280;40708;50.364;7.550;2023-07-31T11:46:00;99783.28;;;23.51;100.00
54808;BME280;40708;50.364;7.550;2023-07-31T11:48:32;99778.63;;;23.95;100.00
54808;BME280;40708;50.364;7.550;2023-07-31T11:51:00;99781.50;;;23.92;100.00
54808;BME280;40708;50.364;7.550;2023-07-31T11:53:31;99780.25;;;23.98;100.00
54808;BME280;40708;50.364;7.550;2023-07-31T11:55:59;99767.41;;;23.73;100.00
54808;BME280;40708;50.364;7.550;2023-07-31T11:58:26;99766.13;;;24.07;100.00
54808;BME280;40708;50.364;7.550;2023-07-31T12:00:52;99755.69;;;24.54;100.00
54808;BME280;40708;50.364;7.550;2023-07-31T12:03:18;99749.47;;;25.18;100.00
54808;BME280;40708;50.364;7.550;2023-07-31T12:05:43;99757.19;;;25.37;100.00
54808;BME280;40708;50.364;7.550;2023-07-31T12:08:10;99751.53;;;25.02;100.00
54808;BME280;40708;50.364;7.550;2023-07-31T12:10:37;99749.34;;;24.95;100.00
54808;BME280;40708;50.364;7.550;2023-07-31T12:13:08;99756.75;;;25.43;100.00
54808;BME280;40708;50.364;7.550;2023-07-31T12:15:42;99746.78;;;25.56;100.00
54808;BME280;40708;50.364;7.550;2023-07-31T12:18:13;99753.19;;;25.68;100.00
54808;BME280;40708;50.364;7.550;2023-07-31T12:20:43;99753.03;;;25.44;100.00
54808;BME280;40708;50.364;7.550;2023-07-31T12:23:22;99780.03;;;24.29;100.00
54808;BME280;40708;50.364;7.550;2023-07-31T12:26:09;99769.97;;;24.17;100.00
54808;BME280;40708;50.364;7.550;2023-07-31T12:28:42;99768.25;;;24.69;100.00
54808;BME280;40708;50.364;7.550;2023-07-31T12:31:13;99770.84;;;24.17;100.00
54808;BME280;40708;50.364;7.550;2023-07-31T12:33:40;99768.88;;;24.34;100.00
54808;BME280;40708;50.364;7.550;2023-07-31T12:36:11;99763.28;;;24.49;100.00
54808;BME280;40708;50.364;7.550;2023-07-31T12:38:36;99765.13;;;24.49;100.00
54808;BME280;40708;50.364;7.550;2023-07-31T12:41:02;99748.44;;;24.81;100.00
54808;BME280;40708;50.364;7.550;2023-07-31T12:43:27;99766.44;;;24.43;100.00
54808;BME280;40708;50.364;7.550;2023-07-31T12:45:54;99764.63;;;23.75;100.00
54808;BME280;40708;50.364;7.550;2023-07-31T12:48:20;99774.09;;;23.67;100.00